sensor_id;sensor_type;location;lat;lon;timestamp;P1;durP1;ratioP1;P2;durP2;ratioP2
60169;SDS011;46042;49.444;6.862;2023-08-12T00:01:23;15.07;;;6.03;;
60169;SDS011;46042;49.444;6.862;2023-08-12T00:03:51;14.27;;;5.65;;
60169;SDS011;46042;49.444;6.862;2023-08-12T00:06:18;18.77;;;6.60;;
60169;SDS011;46042;49.444;6.862;2023-08-12T00:08:44;12.45;;;6.38;;
60169;SDS011;46042;49.444;6.862;2023-08-12T00:11:11;18.13;;;6.20;;
60169;SDS011;46042;49.444;6.862;2023-08-12T00:13:38;16.75;;;6.90;;
60169;SDS011;46042;49.444;6.862;2023-08-12T00:16:05;14.40;;;6.15;;
60169;SDS011;46042;49.444;6.862;2023-08-12T00:18:31;16.30;;;6.70;;
60169;SDS011;46042;49.444;6.862;2023-08-12T00:21:06;15.68;;;6.07;;
60169;SDS011;46042;49.444;6.862;2023-08-12T00:23:37;12.13;;;6.65;;
60169;SDS011;46042;49.444;6.862;2023-08-12T00:26:07;20.88;;;7.65;;
60169;SDS011;46042;49.444;6.862;2023-08-12T00:28:34;14.45;;;6.97;;
60169;SDS011;46042;49.444;6.862;2023-08-12T00:31:01;17.88;;;6.13;;
60169;SDS011;46042;49.444;6.862;2023-08-12T00:33:28;10.98;;;6.40;;
60169;SDS011;46042;49.444;6.862;2023-08-12T00:35:55;13.48;;;6.50;;
60169;SDS011;46042;49.444;6.862;2023-08-12T00:38:21;15.23;;;6.82;;
60169;SDS011;46042;49.444;6.862;2023-08-12T00:40:48;15.13;;;6.90;;
60169;SDS011;46042;49.444;6.862;2023-08-12T00:43:15;15.55;;;6.65;;
60169;SDS011;46042;49.444;6.862;2023-08-12T00:45:42;19.63;;;7.68;;
60169;SDS011;46042;49.444;6.862;2023-08-12T00:48:09;23.40;;;7.28;;
60169;SDS011;46042;49.444;6.862;2023-08-12T00:53:06;19.63;;;6.78;;
60169;SDS011;46042;49.444;6.862;2023-08-12T00:55:35;25.20;;;7.30;;
60169;SDS011;46042;49.444;6.862;2023-08-12T00:58:02;17.42;;;7.18;;
60169;SDS011;46042;49.444;6.862;2023-08-12T01:00:30;22.83;;;6.97;;
60169;SDS011;46042;49.444;6.862;2023-08-12T01:02:58;13.95;;;7.53;;
60169;SDS011;46042;49.444;6.862;2023-08-12T01:05:27;14.23;;;6.32;;
60169;SDS011;46042;49.444;6.862;2023-08-12T01:07:56;13.30;;;6.22;;
60169;SDS011;46042;49.444;6.862;2023-08-12T01:10:23;15.05;;;7.80;;
60169;SDS011;46042;49.444;6.862;2023-08-12T01:12:59;10.60;;;6.78;;
60169;SDS011;46042;49.444;6.862;2023-08-12T01:15:51;14.52;;;7.32;;
60169;SDS011;46042;49.444;6.862;2023-08-12T01:18:20;23.83;;;8.27;;
60169;SDS011;46042;49.444;6.862;2023-08-12T01:20:47;22.33;;;8.52;;
60169;SDS011;46042;49.444;6.862;2023-08-12T01:23:15;26.77;;;8.05;;
60169;SDS011;46042;49.444;6.862;2023-08-12T01:25:42;44.53;;;9.05;;
60169;SDS011;46042;49.444;6.862;2023-08-12T01:28:09;13.95;;;7.07;;
60169;SDS011;46042;49.444;6.862;2023-08-12T01:30:39;16.55;;;7.75;;
60169;SDS011;46042;49.444;6.862;2023-08-12T01:33:21;12.73;;;7.57;;
60169;SDS011;46042;49.444;6.862;2023-08-12T01:36:00;14.85;;;8.05;;
60169;SDS011;46042;49.444;6.862;2023-08-12T01:38:35;15.68;;;8.65;;
60169;SDS011;46042;49.444;6.862;2023-08-12T01:41:05;19.38;;;8.90;;
60169;SDS011;46042;49.444;6.862;2023-08-12T01:43:36;15.05;;;7.88;;
60169;SDS011;46042;49.444;6.862;2023-08-12T01:46:04;15.50;;;8.15;;
60169;SDS011;46042;49.444;6.862;2023-08-12T01:48:31;15.30;;;8.23;;
60169;SDS011;46042;49.444;6.862;2023-08-12T01:50:57;14.60;;;7.82;;
60169;SDS011;46042;49.444;6.862;2023-08-12T01:53:24;12.43;;;7.72;;
60169;SDS011;46042;49.444;6.862;2023-08-12T01:55:51;16.98;;;8.18;;
60169;SDS011;46042;49.444;6.862;2023-08-12T01:58:18;11.77;;;7.40;;
60169;SDS011;46042;49.444;6.862;2023-08-12T02:00:45;15.35;;;7.60;;
60169;SDS011;46042;49.444;6.862;2023-08-12T02:03:12;16.25;;;7.45;;
60169;SDS011;46042;49.444;6.862;2023-08-12T02:05:38;11.93;;;7.18;;
60169;SDS011;46042;49.444;6.862;2023-08-12T02:08:07;17.75;;;7.13;;
60169;SDS011;46042;49.444;6.862;2023-08-12T02:10:34;17.63;;;7.50;;
60169;SDS011;46042;49.444;6.862;2023-08-12T02:13:00;16.73;;;7.85;;
60169;SDS011;46042;49.444;6.862;2023-08-12T02:15:29;14.02;;;7.75;;
60169;SDS011;46042;49.444;6.862;2023-08-12T02:17:55;15.20;;;7.75;;
60169;SDS011;46042;49.444;6.862;2023-08-12T02:20:22;12.65;;;7.70;;
60169;SDS011;46042;49.444;6.862;2023-08-12T02:22:49;16.63;;;8.35;;
60169;SDS011;46042;49.444;6.862;2023-08-12T02:25:16;13.27;;;8.02;;
60169;SDS011;46042;49.444;6.862;2023-08-12T02:27:42;13.07;;;7.90;;
60169;SDS011;46042;49.444;6.862;2023-08-12T02:30:10;14.90;;;7.68;;
60169;SDS011;46042;49.444;6.862;2023-08-12T02:32:37;13.57;;;7.82;;
60169;SDS011;46042;49.444;6.862;2023-08-12T02:35:04;16.23;;;9.32;;
60169;SDS011;46042;49.444;6.862;2023-08-12T02:37:31;17.58;;;9.50;;
60169;SDS011;46042;49.444;6.862;2023-08-12T02:39:57;15.27;;;9.40;;
60169;SDS011;46042;49.444;6.862;2023-08-12T02:42:24;15.27;;;8.30;;
60169;SDS011;46042;49.444;6.862;2023-08-12T02:44:51;19.23;;;10.02;;
60169;SDS011;46042;49.444;6.862;2023-08-12T02:47:17;21.33;;;9.88;;
60169;SDS011;46042;49.444;6.862;2023-08-12T02:49:44;27.85;;;11.35;;
60169;SDS011;46042;49.444;6.862;2023-08-12T02:52:10;15.10;;;9.57;;
60169;SDS011;46042;49.444;6.862;2023-08-12T02:54:37;23.65;;;8.75;;
60169;SDS011;46042;49.444;6.862;2023-08-12T02:57:04;18.15;;;9.20;;
60169;SDS011;46042;49.444;6.862;2023-08-12T02:59:30;13.25;;;8.88;;
60169;SDS011;46042;49.444;6.862;2023-08-12T03:01:57;15.20;;;9.05;;
60169;SDS011;46042;49.444;6.862;2023-08-12T03:04:24;16.58;;;9.35;;
60169;SDS011;46042;49.444;6.862;2023-08-12T03:06:51;19.50;;;10.50;;
60169;SDS011;46042;49.444;6.862;2023-08-12T03:09:17;23.30;;;10.00;;
60169;SDS011;46042;49.444;6.862;2023-08-12T03:11:44;23.02;;;9.88;;
60169;SDS011;46042;49.444;6.862;2023-08-12T03:14:11;22.35;;;9.65;;
60169;SDS011;46042;49.444;6.862;2023-08-12T03:16:38;157.00;;;14.63;;
60169;SDS011;46042;49.444;6.862;2023-08-12T03:19:04;30.23;;;9.93;;
60169;SDS011;46042;49.444;6.862;2023-08-12T03:21:31;17.55;;;9.05;;
60169;SDS011;46042;49.444;6.862;2023-08-12T03:23:58;231.50;;;15.10;;
60169;SDS011;46042;49.444;6.862;2023-08-12T03:26:25;57.83;;;11.40;;
60169;SDS011;46042;49.444;6.862;2023-08-12T03:28:52;157.70;;;11.93;;
60169;SDS011;46042;49.444;6.862;2023-08-12T03:31:18;30.30;;;10.38;;
60169;SDS011;46042;49.444;6.862;2023-08-12T03:33:45;13.50;;;9.65;;
60169;SDS011;46042;49.444;6.862;2023-08-12T03:36:12;28.70;;;10.75;;
60169;SDS011;46042;49.444;6.862;2023-08-12T03:38:38;15.57;;;7.72;;
60169;SDS011;46042;49.444;6.862;2023-08-12T03:41:05;20.13;;;8.00;;
60169;SDS011;46042;49.444;6.862;2023-08-12T03:43:32;90.55;;;10.40;;
60169;SDS011;46042;49.444;6.862;2023-08-12T03:46:00;12.93;;;7.65;;
60169;SDS011;46042;49.444;6.862;2023-08-12T03:48:26;12.15;;;6.82;;
60169;SDS011;46042;49.444;6.862;2023-08-12T03:50:53;13.07;;;7.38;;
60169;SDS011;46042;49.444;6.862;2023-08-12T03:53:19;9.63;;;6.85;;
60169;SDS011;46042;49.444;6.862;2023-08-12T03:55:46;17.73;;;7.75;;
60169;SDS011;46042;49.444;6.862;2023-08-12T03:58:13;10.75;;;6.90;;
60169;SDS011;46042;49.444;6.862;2023-08-12T04:00:40;17.63;;;7.40;;
60169;SDS011;46042;49.444;6.862;2023-08-12T04:03:09;8.80;;;6.30;;
60169;SDS011;46042;49.444;6.862;2023-08-12T04:05:35;10.93;;;6.45;;
60169;SDS011;46042;49.444;6.862;2023-08-12T04:08:02;15.02;;;6.65;;
60169;SDS011;46042;49.444;6.862;2023-08-12T04:10:30;12.45;;;7.15;;
60169;SDS011;46042;49.444;6.862;2023-08-12T04:12:56;9.55;;;7.03;;
60169;SDS011;46042;49.444;6.862;2023-08-12T04:15:23;9.82;;;6.28;;
60169;SDS011;46042;49.444;6.862;2023-08-12T04:17:50;16.02;;;6.53;;
60169;SDS011;46042;49.444;6.862;2023-08-12T04:20:18;52.70;;;7.72;;
60169;SDS011;46042;49.444;6.862;2023-08-12T04:22:44;19.73;;;7.28;;
60169;SDS011;46042;49.444;6.862;2023-08-12T04:25:15;16.80;;;6.63;;
60169;SDS011;46042;49.444;6.862;2023-08-12T04:27:41;12.90;;;6.97;;
60169;SDS011;46042;49.444;6.862;2023-08-12T04:30:08;15.63;;;6.63;;
60169;SDS011;46042;49.444;6.862;2023-08-12T04:32:35;10.10;;;6.10;;
60169;SDS011;46042;49.444;6.862;2023-08-12T04:35:02;18.52;;;7.18;;
60169;SDS011;46042;49.444;6.862;2023-08-12T04:37:29;10.85;;;6.15;;
60169;SDS011;46042;49.444;6.862;2023-08-12T04:39:58;12.88;;;6.72;;
60169;SDS011;46042;49.444;6.862;2023-08-12T04:42:26;17.27;;;7.97;;
60169;SDS011;46042;49.444;6.862;2023-08-12T04:44:53;11.10;;;7.53;;
60169;SDS011;46042;49.444;6.862;2023-08-12T04:47:20;272.67;;;14.57;;
60169;SDS011;46042;49.444;6.862;2023-08-12T04:49:46;77.90;;;10.63;;
60169;SDS011;46042;49.444;6.862;2023-08-12T04:52:13;46.88;;;8.98;;
60169;SDS011;46042;49.444;6.862;2023-08-12T04:54:40;22.65;;;9.02;;
60169;SDS011;46042;49.444;6.862;2023-08-12T04:57:06;14.75;;;7.60;;
60169;SDS011;46042;49.444;6.862;2023-08-12T04:59:33;16.92;;;8.20;;
60169;SDS011;46042;49.444;6.862;2023-08-12T05:02:00;74.75;;;9.32;;
60169;SDS011;46042;49.444;6.862;2023-08-12T05:04:42;52.85;;;10.18;;
60169;SDS011;46042;49.444;6.862;2023-08-12T05:07:09;24.27;;;8.35;;
60169;SDS011;46042;49.444;6.862;2023-08-12T05:09:36;144.15;;;11.70;;
60169;SDS011;46042;49.444;6.862;2023-08-12T05:12:02;13.73;;;8.82;;
60169;SDS011;46042;49.444;6.862;2023-08-12T05:14:29;13.18;;;7.78;;
60169;SDS011;46042;49.444;6.862;2023-08-12T05:16:56;26.20;;;8.93;;
60169;SDS011;46042;49.444;6.862;2023-08-12T05:19:22;369.73;;;19.42;;
60169;SDS011;46042;49.444;6.862;2023-08-12T05:21:49;38.17;;;10.73;;
60169;SDS011;46042;49.444;6.862;2023-08-12T05:24:16;280.63;;;14.48;;
60169;SDS011;46042;49.444;6.862;2023-08-12T05:26:43;16.05;;;9.48;;
60169;SDS011;46042;49.444;6.862;2023-08-12T05:29:09;53.55;;;11.32;;
60169;SDS011;46042;49.444;6.862;2023-08-12T05:31:36;14.52;;;9.30;;
60169;SDS011;46042;49.444;6.862;2023-08-12T05:34:03;16.20;;;8.82;;
60169;SDS011;46042;49.444;6.862;2023-08-12T05:36:30;21.67;;;9.40;;
60169;SDS011;46042;49.444;6.862;2023-08-12T05:38:57;25.88;;;9.23;;
60169;SDS011;46042;49.444;6.862;2023-08-12T05:41:24;77.15;;;11.05;;
60169;SDS011;46042;49.444;6.862;2023-08-12T05:43:51;91.78;;;11.45;;
60169;SDS011;46042;49.444;6.862;2023-08-12T05:46:18;16.63;;;8.75;;
60169;SDS011;46042;49.444;6.862;2023-08-12T05:48:45;98.80;;;12.27;;
60169;SDS011;46042;49.444;6.862;2023-08-12T05:51:12;24.23;;;10.70;;
60169;SDS011;46042;49.444;6.862;2023-08-12T05:53:38;45.30;;;12.50;;
60169;SDS011;46042;49.444;6.862;2023-08-12T05:56:05;21.77;;;10.60;;
60169;SDS011;46042;49.444;6.862;2023-08-12T05:58:33;15.15;;;9.50;;
60169;SDS011;46042;49.444;6.862;2023-08-12T06:00:59;27.00;;;10.60;;
60169;SDS011;46042;49.444;6.862;2023-08-12T06:03:26;18.45;;;9.80;;
60169;SDS011;46042;49.444;6.862;2023-08-12T06:05:53;17.88;;;9.85;;
60169;SDS011;46042;49.444;6.862;2023-08-12T06:08:20;21.58;;;11.27;;
60169;SDS011;46042;49.444;6.862;2023-08-12T06:10:46;21.63;;;11.98;;
60169;SDS011;46042;49.444;6.862;2023-08-12T06:13:13;21.55;;;11.30;;
60169;SDS011;46042;49.444;6.862;2023-08-12T06:15:40;22.98;;;11.75;;
60169;SDS011;46042;49.444;6.862;2023-08-12T06:18:07;22.40;;;11.68;;
60169;SDS011;46042;49.444;6.862;2023-08-12T06:20:34;21.38;;;10.68;;
60169;SDS011;46042;49.444;6.862;2023-08-12T06:23:00;33.40;;;14.10;;
60169;SDS011;46042;49.444;6.862;2023-08-12T06:25:27;28.75;;;11.38;;
60169;SDS011;46042;49.444;6.862;2023-08-12T06:27:54;27.50;;;14.70;;
60169;SDS011;46042;49.444;6.862;2023-08-12T06:30:21;23.83;;;12.52;;
60169;SDS011;46042;49.444;6.862;2023-08-12T06:32:48;23.88;;;11.73;;
60169;SDS011;46042;49.444;6.862;2023-08-12T06:35:14;27.50;;;14.05;;
60169;SDS011;46042;49.444;6.862;2023-08-12T06:37:41;28.00;;;12.57;;
60169;SDS011;46042;49.444;6.862;2023-08-12T06:40:08;27.40;;;12.40;;
60169;SDS011;46042;49.444;6.862;2023-08-12T06:42:35;36.38;;;15.10;;
60169;SDS011;46042;49.444;6.862;2023-08-12T06:45:02;32.25;;;16.20;;
60169;SDS011;46042;49.444;6.862;2023-08-12T06:47:30;29.02;;;13.75;;
60169;SDS011;46042;49.444;6.862;2023-08-12T06:49:57;33.65;;;15.68;;
60169;SDS011;46042;49.444;6.862;2023-08-12T06:52:24;43.28;;;16.13;;
60169;SDS011;46042;49.444;6.862;2023-08-12T06:54:51;33.40;;;16.38;;
60169;SDS011;46042;49.444;6.862;2023-08-12T06:57:17;44.75;;;19.15;;
60169;SDS011;46042;49.444;6.862;2023-08-12T06:59:44;35.58;;;17.00;;
60169;SDS011;46042;49.444;6.862;2023-08-12T07:02:11;35.25;;;17.98;;
60169;SDS011;46042;49.444;6.862;2023-08-12T07:04:38;37.70;;;17.23;;
60169;SDS011;46042;49.444;6.862;2023-08-12T07:07:05;46.03;;;21.67;;
60169;SDS011;46042;49.444;6.862;2023-08-12T07:09:32;45.30;;;20.40;;
60169;SDS011;46042;49.444;6.862;2023-08-12T07:11:58;45.28;;;21.15;;
60169;SDS011;46042;49.444;6.862;2023-08-12T07:14:25;46.60;;;17.17;;
60169;SDS011;46042;49.444;6.862;2023-08-12T07:16:52;35.45;;;16.00;;
60169;SDS011;46042;49.444;6.862;2023-08-12T07:19:19;39.13;;;17.02;;
60169;SDS011;46042;49.444;6.862;2023-08-12T07:21:46;31.83;;;15.73;;
60169;SDS011;46042;49.444;6.862;2023-08-12T07:24:12;43.70;;;17.50;;
60169;SDS011;46042;49.444;6.862;2023-08-12T07:26:39;45.60;;;19.30;;
60169;SDS011;46042;49.444;6.862;2023-08-12T07:29:06;43.65;;;21.13;;
60169;SDS011;46042;49.444;6.862;2023-08-12T07:31:32;47.20;;;19.80;;
60169;SDS011;46042;49.444;6.862;2023-08-12T07:33:59;53.40;;;21.15;;
60169;SDS011;46042;49.444;6.862;2023-08-12T07:36:26;50.05;;;21.00;;
60169;SDS011;46042;49.444;6.862;2023-08-12T07:38:52;45.28;;;21.55;;
60169;SDS011;46042;49.444;6.862;2023-08-12T07:41:19;36.83;;;20.30;;
60169;SDS011;46042;49.444;6.862;2023-08-12T07:43:46;40.83;;;18.00;;
60169;SDS011;46042;49.444;6.862;2023-08-12T07:46:13;36.17;;;16.17;;
60169;SDS011;46042;49.444;6.862;2023-08-12T07:48:40;28.35;;;14.55;;
60169;SDS011;46042;49.444;6.862;2023-08-12T07:51:06;26.85;;;15.10;;
60169;SDS011;46042;49.444;6.862;2023-08-12T07:53:33;30.35;;;15.68;;
60169;SDS011;46042;49.444;6.862;2023-08-12T07:56:00;29.48;;;14.43;;
60169;SDS011;46042;49.444;6.862;2023-08-12T07:58:27;22.13;;;12.32;;
60169;SDS011;46042;49.444;6.862;2023-08-12T08:00:54;21.02;;;11.00;;
60169;SDS011;46042;49.444;6.862;2023-08-12T08:03:21;18.10;;;11.38;;
60169;SDS011;46042;49.444;6.862;2023-08-12T08:05:47;17.25;;;10.32;;
60169;SDS011;46042;49.444;6.862;2023-08-12T08:08:14;20.73;;;10.73;;
60169;SDS011;46042;49.444;6.862;2023-08-12T08:10:41;22.95;;;11.05;;
60169;SDS011;46042;49.444;6.862;2023-08-12T08:13:07;18.23;;;9.77;;
60169;SDS011;46042;49.444;6.862;2023-08-12T08:15:34;22.85;;;10.90;;
60169;SDS011;46042;49.444;6.862;2023-08-12T08:18:01;18.65;;;9.77;;
60169;SDS011;46042;49.444;6.862;2023-08-12T08:20:30;15.18;;;8.32;;
60169;SDS011;46042;49.444;6.862;2023-08-12T08:22:57;20.95;;;10.30;;
60169;SDS011;46042;49.444;6.862;2023-08-12T08:25:24;17.48;;;9.70;;
60169;SDS011;46042;49.444;6.862;2023-08-12T08:27:50;17.60;;;8.90;;
60169;SDS011;46042;49.444;6.862;2023-08-12T08:30:17;13.57;;;8.50;;
60169;SDS011;46042;49.444;6.862;2023-08-12T08:32:44;17.80;;;8.25;;
60169;SDS011;46042;49.444;6.862;2023-08-12T08:35:13;18.73;;;9.00;;
60169;SDS011;46042;49.444;6.862;2023-08-12T08:37:40;12.98;;;8.57;;
60169;SDS011;46042;49.444;6.862;2023-08-12T08:40:07;19.63;;;8.85;;
60169;SDS011;46042;49.444;6.862;2023-08-12T08:42:34;16.05;;;8.98;;
60169;SDS011;46042;49.444;6.862;2023-08-12T08:45:03;18.85;;;10.98;;
60169;SDS011;46042;49.444;6.862;2023-08-12T08:47:38;23.50;;;10.95;;
60169;SDS011;46042;49.444;6.862;2023-08-12T08:50:09;26.05;;;12.50;;
60169;SDS011;46042;49.444;6.862;2023-08-12T08:52:37;26.02;;;14.48;;
60169;SDS011;46042;49.444;6.862;2023-08-12T08:55:04;51.50;;;18.80;;
60169;SDS011;46042;49.444;6.862;2023-08-12T08:57:33;42.70;;;17.25;;
60169;SDS011;46042;49.444;6.862;2023-08-12T09:00:03;32.03;;;16.58;;
60169;SDS011;46042;49.444;6.862;2023-08-12T09:02:48;38.03;;;17.35;;
60169;SDS011;46042;49.444;6.862;2023-08-12T09:05:17;42.90;;;18.65;;
60169;SDS011;46042;49.444;6.862;2023-08-12T09:07:45;44.85;;;21.15;;
60169;SDS011;46042;49.444;6.862;2023-08-12T09:10:12;38.08;;;21.70;;
60169;SDS011;46042;49.444;6.862;2023-08-12T09:12:41;37.42;;;21.00;;
60169;SDS011;46042;49.444;6.862;2023-08-12T09:15:09;38.47;;;20.65;;
60169;SDS011;46042;49.444;6.862;2023-08-12T09:17:36;36.67;;;19.25;;
60169;SDS011;46042;49.444;6.862;2023-08-12T09:20:05;36.25;;;19.60;;
60169;SDS011;46042;49.444;6.862;2023-08-12T09:22:38;33.75;;;19.05;;
60169;SDS011;46042;49.444;6.862;2023-08-12T09:25:06;30.38;;;18.58;;
60169;SDS011;46042;49.444;6.862;2023-08-12T09:27:40;32.22;;;19.15;;
60169;SDS011;46042;49.444;6.862;2023-08-12T09:30:30;33.78;;;17.38;;
60169;SDS011;46042;49.444;6.862;2023-08-12T09:33:25;26.75;;;16.10;;
60169;SDS011;46042;49.444;6.862;2023-08-12T09:35:54;30.02;;;16.30;;
60169;SDS011;46042;49.444;6.862;2023-08-12T09:38:23;25.85;;;15.85;;
60169;SDS011;46042;49.444;6.862;2023-08-12T09:40:51;26.67;;;15.77;;
60169;SDS011;46042;49.444;6.862;2023-08-12T09:43:23;32.53;;;17.10;;
60169;SDS011;46042;49.444;6.862;2023-08-12T09:45:51;27.25;;;14.20;;
60169;SDS011;46042;49.444;6.862;2023-08-12T09:48:18;23.40;;;11.25;;
60169;SDS011;46042;49.444;6.862;2023-08-12T09:50:44;14.30;;;6.88;;
60169;SDS011;46042;49.444;6.862;2023-08-12T09:53:11;11.85;;;6.55;;
60169;SDS011;46042;49.444;6.862;2023-08-12T09:56:05;20.20;;;6.72;;
60169;SDS011;46042;49.444;6.862;2023-08-12T09:58:35;17.13;;;6.60;;
60169;SDS011;46042;49.444;6.862;2023-08-12T10:01:03;10.50;;;5.70;;
60169;SDS011;46042;49.444;6.862;2023-08-12T10:03:34;13.98;;;6.20;;
60169;SDS011;46042;49.444;6.862;2023-08-12T10:06:03;14.35;;;5.82;;
60169;SDS011;46042;49.444;6.862;2023-08-12T10:08:31;12.52;;;6.05;;
60169;SDS011;46042;49.444;6.862;2023-08-12T10:10:59;8.55;;;5.53;;
60169;SDS011;46042;49.444;6.862;2023-08-12T10:13:38;11.10;;;5.50;;
60169;SDS011;46042;49.444;6.862;2023-08-12T10:16:07;8.52;;;5.10;;
60169;SDS011;46042;49.444;6.862;2023-08-12T10:18:36;11.02;;;6.65;;
60169;SDS011;46042;49.444;6.862;2023-08-12T10:21:04;11.32;;;5.32;;
60169;SDS011;46042;49.444;6.862;2023-08-12T10:23:35;12.18;;;5.05;;
60169;SDS011;46042;49.444;6.862;2023-08-12T10:26:02;9.15;;;5.38;;
60169;SDS011;46042;49.444;6.862;2023-08-12T10:28:32;10.85;;;5.25;;
60169;SDS011;46042;49.444;6.862;2023-08-12T10:31:06;15.38;;;5.80;;
60169;SDS011;46042;49.444;6.862;2023-08-12T10:33:40;8.80;;;5.30;;
60169;SDS011;46042;49.444;6.862;2023-08-12T10:36:09;7.80;;;4.88;;
60169;SDS011;46042;49.444;6.862;2023-08-12T10:38:36;8.35;;;4.85;;
60169;SDS011;46042;49.444;6.862;2023-08-12T10:41:19;6.78;;;4.82;;
60169;SDS011;46042;49.444;6.862;2023-08-12T10:46:32;6.97;;;4.00;;
60169;SDS011;46042;49.444;6.862;2023-08-12T10:49:07;8.73;;;4.28;;
60169;SDS011;46042;49.444;6.862;2023-08-12T10:54:23;9.25;;;3.97;;
60169;SDS011;46042;49.444;6.862;2023-08-12T10:57:10;12.40;;;4.45;;
60169;SDS011;46042;49.444;6.862;2023-08-12T11:02:18;8.55;;;4.20;;
60169;SDS011;46042;49.444;6.862;2023-08-12T11:07:19;9.48;;;4.97;;
60169;SDS011;46042;49.444;6.862;2023-08-12T11:09:51;5.60;;;3.60;;
60169;SDS011;46042;49.444;6.862;2023-08-12T11:12:29;5.90;;;3.10;;
60169;SDS011;46042;49.444;6.862;2023-08-12T11:15:03;4.88;;;2.97;;
60169;SDS011;46042;49.444;6.862;2023-08-12T11:17:37;4.15;;;2.72;;
60169;SDS011;46042;49.444;6.862;2023-08-12T11:20:06;5.78;;;3.15;;
60169;SDS011;46042;49.444;6.862;2023-08-12T11:22:36;10.40;;;3.10;;
60169;SDS011;46042;49.444;6.862;2023-08-12T11:27:44;10.15;;;3.40;;
60169;SDS011;46042;49.444;6.862;2023-08-12T11:30:15;5.57;;;3.00;;
60169;SDS011;46042;49.444;6.862;2023-08-12T11:32:43;5.20;;;3.23;;
60169;SDS011;46042;49.444;6.862;2023-08-12T11:35:15;8.23;;;3.55;;
60169;SDS011;46042;49.444;6.862;2023-08-12T11:37:44;5.57;;;3.20;;
60169;SDS011;46042;49.444;6.862;2023-08-12T11:40:14;8.75;;;3.25;;
60169;SDS011;46042;49.444;6.862;2023-08-12T11:42:48;13.00;;;3.72;;
60169;SDS011;46042;49.444;6.862;2023-08-12T11:45:20;5.00;;;3.20;;
60169;SDS011;46042;49.444;6.862;2023-08-12T11:47:48;5.07;;;2.60;;
60169;SDS011;46042;49.444;6.862;2023-08-12T11:50:20;5.03;;;3.00;;
60169;SDS011;46042;49.444;6.862;2023-08-12T11:52:49;6.88;;;3.10;;
60169;SDS011;46042;49.444;6.862;2023-08-12T11:55:16;4.22;;;2.20;;
60169;SDS011;46042;49.444;6.862;2023-08-12T11:57:44;6.63;;;3.33;;
60169;SDS011;46042;49.444;6.862;2023-08-12T12:00:11;6.75;;;2.90;;
60169;SDS011;46042;49.444;6.862;2023-08-12T12:02:47;5.45;;;2.92;;
60169;SDS011;46042;49.444;6.862;2023-08-12T12:05:22;5.32;;;2.90;;
60169;SDS011;46042;49.444;6.862;2023-08-12T12:07:50;12.88;;;2.72;;
60169;SDS011;46042;49.444;6.862;2023-08-12T12:13:00;5.35;;;2.80;;
60169;SDS011;46042;49.444;6.862;2023-08-12T12:15:28;5.85;;;2.80;;
60169;SDS011;46042;49.444;6.862;2023-08-12T12:17:55;5.60;;;2.80;;
60169;SDS011;46042;49.444;6.862;2023-08-12T12:20:22;5.72;;;3.38;;
60169;SDS011;46042;49.444;6.862;2023-08-12T12:22:50;5.72;;;3.05;;
60169;SDS011;46042;49.444;6.862;2023-08-12T12:25:17;6.65;;;2.60;;
60169;SDS011;46042;49.444;6.862;2023-08-12T12:27:46;10.05;;;3.10;;
60169;SDS011;46042;49.444;6.862;2023-08-12T12:30:14;5.97;;;2.97;;
60169;SDS011;46042;49.444;6.862;2023-08-12T12:32:42;4.32;;;2.70;;
60169;SDS011;46042;49.444;6.862;2023-08-12T12:35:10;4.25;;;2.75;;
60169;SDS011;46042;49.444;6.862;2023-08-12T12:37:37;4.22;;;2.50;;
60169;SDS011;46042;49.444;6.862;2023-08-12T12:40:05;7.47;;;3.15;;
60169;SDS011;46042;49.444;6.862;2023-08-12T12:42:33;6.85;;;2.47;;
60169;SDS011;46042;49.444;6.862;2023-08-12T12:45:00;3.95;;;2.92;;
60169;SDS011;46042;49.444;6.862;2023-08-12T12:47:27;7.47;;;2.88;;
60169;SDS011;46042;49.444;6.862;2023-08-12T12:49:53;9.77;;;2.90;;
60169;SDS011;46042;49.444;6.862;2023-08-12T12:52:20;6.95;;;2.97;;
60169;SDS011;46042;49.444;6.862;2023-08-12T12:54:47;5.13;;;2.95;;
60169;SDS011;46042;49.444;6.862;2023-08-12T12:57:15;7.05;;;3.15;;
60169;SDS011;46042;49.444;6.862;2023-08-12T12:59:42;6.90;;;2.80;;
60169;SDS011;46042;49.444;6.862;2023-08-12T13:02:09;7.63;;;3.05;;
60169;SDS011;46042;49.444;6.862;2023-08-12T13:04:36;5.68;;;3.33;;
60169;SDS011;46042;49.444;6.862;2023-08-12T13:07:03;5.63;;;2.83;;
60169;SDS011;46042;49.444;6.862;2023-08-12T13:09:29;7.00;;;2.55;;
60169;SDS011;46042;49.444;6.862;2023-08-12T13:11:57;11.48;;;3.00;;
60169;SDS011;46042;49.444;6.862;2023-08-12T13:14:24;9.57;;;3.63;;
60169;SDS011;46042;49.444;6.862;2023-08-12T13:16:51;6.20;;;3.25;;
60169;SDS011;46042;49.444;6.862;2023-08-12T13:19:18;7.80;;;3.60;;
60169;SDS011;46042;49.444;6.862;2023-08-12T13:21:44;5.88;;;3.00;;
60169;SDS011;46042;49.444;6.862;2023-08-12T13:24:11;7.47;;;3.15;;
60169;SDS011;46042;49.444;6.862;2023-08-12T13:26:38;6.60;;;3.05;;
60169;SDS011;46042;49.444;6.862;2023-08-12T13:29:07;4.82;;;3.10;;
60169;SDS011;46042;49.444;6.862;2023-08-12T13:31:33;6.25;;;3.20;;
60169;SDS011;46042;49.444;6.862;2023-08-12T13:34:00;6.38;;;3.38;;
60169;SDS011;46042;49.444;6.862;2023-08-12T13:36:27;7.13;;;2.88;;
60169;SDS011;46042;49.444;6.862;2023-08-12T13:38:54;8.02;;;3.40;;
60169;SDS011;46042;49.444;6.862;2023-08-12T13:41:20;8.27;;;2.97;;
60169;SDS011;46042;49.444;6.862;2023-08-12T13:43:48;8.05;;;3.15;;
60169;SDS011;46042;49.444;6.862;2023-08-12T13:46:14;6.30;;;3.10;;
60169;SDS011;46042;49.444;6.862;2023-08-12T13:48:41;5.93;;;2.63;;
60169;SDS011;46042;49.444;6.862;2023-08-12T13:51:08;9.77;;;3.13;;
60169;SDS011;46042;49.444;6.862;2023-08-12T13:53:35;10.73;;;2.75;;
60169;SDS011;46042;49.444;6.862;2023-08-12T13:56:02;4.22;;;2.60;;
60169;SDS011;46042;49.444;6.862;2023-08-12T13:58:29;4.25;;;2.20;;
60169;SDS011;46042;49.444;6.862;2023-08-12T14:00:55;5.10;;;2.60;;
60169;SDS011;46042;49.444;6.862;2023-08-12T14:03:22;3.17;;;2.10;;
60169;SDS011;46042;49.444;6.862;2023-08-12T14:05:49;5.30;;;2.40;;
60169;SDS011;46042;49.444;6.862;2023-08-12T14:08:16;5.70;;;2.72;;
60169;SDS011;46042;49.444;6.862;2023-08-12T14:10:44;5.63;;;2.35;;
60169;SDS011;46042;49.444;6.862;2023-08-12T14:13:12;4.72;;;2.55;;
60169;SDS011;46042;49.444;6.862;2023-08-12T14:15:40;4.38;;;2.30;;
60169;SDS011;46042;49.444;6.862;2023-08-12T14:18:06;7.20;;;2.45;;
60169;SDS011;46042;49.444;6.862;2023-08-12T14:20:57;3.70;;;2.25;;
60169;SDS011;46042;49.444;6.862;2023-08-12T14:23:25;5.38;;;2.45;;
60169;SDS011;46042;49.444;6.862;2023-08-12T14:25:53;7.55;;;2.42;;
60169;SDS011;46042;49.444;6.862;2023-08-12T14:28:20;6.30;;;2.38;;
60169;SDS011;46042;49.444;6.862;2023-08-12T14:30:46;4.88;;;2.63;;
60169;SDS011;46042;49.444;6.862;2023-08-12T14:33:13;4.75;;;2.65;;
60169;SDS011;46042;49.444;6.862;2023-08-12T14:35:40;4.30;;;2.45;;
60169;SDS011;46042;49.444;6.862;2023-08-12T14:38:06;4.30;;;2.35;;
60169;SDS011;46042;49.444;6.862;2023-08-12T14:40:33;5.57;;;2.53;;
60169;SDS011;46042;49.444;6.862;2023-08-12T14:43:00;8.40;;;2.90;;
60169;SDS011;46042;49.444;6.862;2023-08-12T14:45:27;5.53;;;2.45;;
60169;SDS011;46042;49.444;6.862;2023-08-12T14:47:53;4.60;;;2.50;;
60169;SDS011;46042;49.444;6.862;2023-08-12T14:50:20;6.13;;;2.90;;
60169;SDS011;46042;49.444;6.862;2023-08-12T14:52:47;6.57;;;3.47;;
60169;SDS011;46042;49.444;6.862;2023-08-12T14:55:14;6.47;;;2.90;;
60169;SDS011;46042;49.444;6.862;2023-08-12T14:57:40;7.93;;;2.50;;